VCV3492 SVMI-MUHA
Flight info
| Callsign | VCV3492 |
|---|---|
| Flight time | 2h 46m |
| Altitude | 38000 |
| Route | MARES1 MARES DCT AVELO UA315 PJG UL220 ABA UL332 UCL DUTAN1A |
| Aircraft | A346/H-SDE2E3FGHIJ3J4J5M1RWXY/LB1D1 |
Departure
| Time | 2026-05-07 20:24 |
|---|---|
| Airport | Maiquetía Simón Bolívar International Airport (SVMI) |
Arrival
| Time | 2026-05-07 23:10 |
|---|---|
| Airport | José Martí International Airport (MUHA) |
| Time | Latitude | Longitude | Altitude | Speed | Heading |
|---|---|---|---|---|---|
| 2026-05-07 19:49 | 10.59835 | -67.00675 | 240 ft | 0 kts | 178° |
| 2026-05-07 20:10 | 10.59839 | -67.00675 | 240 ft | 3 kts | 178° |
| 2026-05-07 20:10 | 10.59866 | -67.00676 | 240 ft | 4 kts | 178° |
| 2026-05-07 20:10 | 10.59888 | -67.00678 | 240 ft | 4 kts | 165° |
| 2026-05-07 20:10 | 10.59905 | -67.00687 | 240 ft | 4 kts | 129° |
| 2026-05-07 20:11 | 10.59913 | -67.00705 | 240 ft | 4 kts | 95° |
| 2026-05-07 20:11 | 10.59913 | -67.00732 | 241 ft | 4 kts | 87° |
| 2026-05-07 20:11 | 10.59912 | -67.00747 | 241 ft | 1 kts | 88° |
| 2026-05-07 20:11 | 10.59912 | -67.00749 | 241 ft | 0 kts | 88° |
| 2026-05-07 20:16 | 10.59912 | -67.00747 | 241 ft | 1 kts | 88° |
| 2026-05-07 20:16 | 10.59913 | -67.00723 | 241 ft | 5 kts | 88° |
| 2026-05-07 20:16 | 10.59914 | -67.00671 | 240 ft | 9 kts | 88° |
| 2026-05-07 20:16 | 10.59917 | -67.00591 | 238 ft | 13 kts | 88° |
| 2026-05-07 20:17 | 10.59921 | -67.00485 | 236 ft | 17 kts | 88° |
| 2026-05-07 20:17 | 10.59924 | -67.00370 | 238 ft | 17 kts | 88° |
| 2026-05-07 20:17 | 10.59965 | -67.00302 | 233 ft | 12 kts | 20° |
| 2026-05-07 20:17 | 10.60056 | -67.00293 | 233 ft | 12 kts | 4° |
| 2026-05-07 20:18 | 10.60109 | -67.00226 | 234 ft | 15 kts | 75° |
| 2026-05-07 20:18 | 10.60118 | -67.00108 | 230 ft | 19 kts | 89° |
| 2026-05-07 20:18 | 10.60122 | -66.99986 | 228 ft | 16 kts | 88° |
| 2026-05-07 20:18 | 10.60134 | -66.99860 | 230 ft | 20 kts | 85° |
| 2026-05-07 20:19 | 10.60139 | -66.99708 | 220 ft | 17 kts | 103° |
| 2026-05-07 20:19 | 10.60061 | -66.99666 | 228 ft | 12 kts | 178° |
| 2026-05-07 20:19 | 10.59993 | -66.99662 | 227 ft | 0 kts | 177° |
| 2026-05-07 20:21 | 10.59985 | -66.99662 | 233 ft | 2 kts | 177° |
| 2026-05-07 20:21 | 10.59966 | -66.99661 | 232 ft | 4 kts | 177° |
| 2026-05-07 20:21 | 10.59934 | -66.99660 | 228 ft | 4 kts | 162° |
| 2026-05-07 20:21 | 10.59910 | -66.99631 | 230 ft | 7 kts | 96° |
| 2026-05-07 20:22 | 10.59912 | -66.99608 | 226 ft | 0 kts | 76° |
| 2026-05-07 20:23 | 10.59918 | -66.99582 | 225 ft | 20 kts | 76° |
| 2026-05-07 20:23 | 10.60024 | -66.99143 | 214 ft | 108 kts | 76° |
| 2026-05-07 20:23 | 10.60266 | -66.98126 | 171 ft | 182 kts | 75° |
| 2026-05-07 20:23 | 10.60602 | -66.96813 | 773 ft | 197 kts | 78° |
| 2026-05-07 20:24 | 10.60954 | -66.95463 | 1843 ft | 196 kts | 69° |
| 2026-05-07 20:24 | 10.61716 | -66.94382 | 2836 ft | 185 kts | 39° |
| 2026-05-07 20:24 | 10.62885 | -66.93932 | 3643 ft | 184 kts | 1° |
| 2026-05-07 20:24 | 10.64131 | -66.94367 | 4104 ft | 204 kts | 319° |
| 2026-05-07 20:25 | 10.64953 | -66.95671 | 4263 ft | 240 kts | 289° |
| 2026-05-07 20:25 | 10.65244 | -66.97482 | 4118 ft | 274 kts | 274° |
| 2026-05-07 20:25 | 10.65492 | -66.99429 | 4041 ft | 279 kts | 279° |
| 2026-05-07 20:25 | 10.65836 | -67.01377 | 4024 ft | 280 kts | 281° |
| 2026-05-07 20:26 | 10.66199 | -67.03326 | 4017 ft | 279 kts | 281° |
| 2026-05-07 20:26 | 10.66563 | -67.05266 | 4009 ft | 279 kts | 283° |
| 2026-05-07 20:26 | 10.67312 | -67.07063 | 3992 ft | 278 kts | 305° |
| 2026-05-07 20:26 | 10.68517 | -67.08607 | 4022 ft | 280 kts | 312° |
| 2026-05-07 20:27 | 10.69833 | -67.10123 | 4452 ft | 289 kts | 312° |
| 2026-05-07 20:27 | 10.71146 | -67.11661 | 5459 ft | 286 kts | 311° |
| 2026-05-07 20:27 | 10.72436 | -67.13212 | 6391 ft | 289 kts | 310° |
| 2026-05-07 20:27 | 10.73728 | -67.14800 | 6841 ft | 293 kts | 310° |
| 2026-05-07 20:28 | 10.75022 | -67.16417 | 7213 ft | 296 kts | 309° |
| 2026-05-07 20:28 | 10.76325 | -67.18052 | 7598 ft | 298 kts | 309° |
| 2026-05-07 20:28 | 10.77634 | -67.19700 | 7982 ft | 300 kts | 309° |
| 2026-05-07 20:28 | 10.78954 | -67.21363 | 8376 ft | 303 kts | 309° |
| 2026-05-07 20:29 | 10.80282 | -67.23037 | 8761 ft | 305 kts | 309° |
| 2026-05-07 20:29 | 10.81603 | -67.24706 | 9157 ft | 307 kts | 309° |
| 2026-05-07 20:29 | 10.82947 | -67.26406 | 9562 ft | 309 kts | 309° |
| 2026-05-07 20:29 | 10.84304 | -67.28123 | 9944 ft | 311 kts | 309° |
| 2026-05-07 20:30 | 10.85683 | -67.29869 | 10331 ft | 323 kts | 309° |
| 2026-05-07 20:30 | 10.87127 | -67.31699 | 10720 ft | 340 kts | 309° |
| 2026-05-07 20:30 | 10.88648 | -67.33624 | 11099 ft | 356 kts | 310° |
| 2026-05-07 20:30 | 10.90235 | -67.35630 | 11544 ft | 370 kts | 310° |
| 2026-05-07 20:31 | 10.91878 | -67.37710 | 12046 ft | 381 kts | 310° |
| 2026-05-07 20:31 | 10.93565 | -67.39843 | 12530 ft | 392 kts | 310° |
| 2026-05-07 20:31 | 10.95273 | -67.42004 | 13038 ft | 401 kts | 311° |
| 2026-05-07 20:31 | 10.97027 | -67.44228 | 13544 ft | 405 kts | 311° |
| 2026-05-07 20:32 | 10.98799 | -67.46473 | 14022 ft | 407 kts | 311° |
| 2026-05-07 20:32 | 11.00582 | -67.48730 | 14490 ft | 409 kts | 311° |
| 2026-05-07 20:32 | 11.02371 | -67.50995 | 14951 ft | 411 kts | 311° |
| 2026-05-07 20:32 | 11.04169 | -67.53272 | 15428 ft | 413 kts | 311° |
| 2026-05-07 20:33 | 11.05973 | -67.55560 | 15903 ft | 415 kts | 311° |
| 2026-05-07 20:33 | 11.07788 | -67.57864 | 16396 ft | 418 kts | 311° |
| 2026-05-07 20:33 | 11.09611 | -67.60178 | 16895 ft | 420 kts | 311° |
| 2026-05-07 20:33 | 11.11445 | -67.62504 | 17404 ft | 422 kts | 311° |
| 2026-05-07 20:34 | 11.13290 | -67.64845 | 17913 ft | 424 kts | 311° |
| 2026-05-07 20:34 | 11.15146 | -67.67200 | 18409 ft | 427 kts | 311° |
| 2026-05-07 20:34 | 11.17012 | -67.69565 | 18863 ft | 429 kts | 311° |
| 2026-05-07 20:34 | 11.18887 | -67.71941 | 19301 ft | 430 kts | 310° |
| 2026-05-07 20:35 | 11.20772 | -67.74332 | 19782 ft | 432 kts | 310° |
| 2026-05-07 20:35 | 11.22640 | -67.76701 | 20245 ft | 434 kts | 310° |
| 2026-05-07 20:35 | 11.24534 | -67.79104 | 20737 ft | 435 kts | 310° |
| 2026-05-07 20:35 | 11.26431 | -67.81515 | 21227 ft | 436 kts | 309° |
| 2026-05-07 20:36 | 11.28339 | -67.83939 | 21719 ft | 438 kts | 309° |
| 2026-05-07 20:36 | 11.30253 | -67.86372 | 22223 ft | 440 kts | 309° |
| 2026-05-07 20:36 | 11.32172 | -67.88811 | 22734 ft | 442 kts | 308° |
| 2026-05-07 20:36 | 11.34103 | -67.91266 | 23261 ft | 444 kts | 308° |
| 2026-05-07 20:37 | 11.36037 | -67.93726 | 23736 ft | 445 kts | 308° |
| 2026-05-07 20:37 | 11.37979 | -67.96202 | 24176 ft | 447 kts | 308° |
| 2026-05-07 20:37 | 11.39268 | -67.97845 | 24478 ft | 448 kts | 308° |
| 2026-05-07 20:37 | 11.41220 | -68.00331 | 24919 ft | 449 kts | 309° |
| 2026-05-07 20:38 | 11.43171 | -68.02823 | 25380 ft | 450 kts | 309° |
| 2026-05-07 20:38 | 11.45123 | -68.05325 | 25842 ft | 450 kts | 309° |
| 2026-05-07 20:38 | 11.47076 | -68.07830 | 26320 ft | 451 kts | 309° |
| 2026-05-07 20:38 | 11.49033 | -68.10338 | 26801 ft | 452 kts | 309° |
| 2026-05-07 20:39 | 11.50991 | -68.12847 | 27285 ft | 452 kts | 309° |
| 2026-05-07 20:39 | 11.52950 | -68.15357 | 27780 ft | 452 kts | 309° |
| 2026-05-07 20:39 | 11.54905 | -68.17863 | 28291 ft | 452 kts | 309° |
| 2026-05-07 20:39 | 11.56866 | -68.20375 | 28807 ft | 451 kts | 309° |
| 2026-05-07 20:40 | 11.58801 | -68.22855 | 29328 ft | 451 kts | 309° |
| 2026-05-07 20:40 | 11.60753 | -68.25358 | 29860 ft | 450 kts | 309° |
| 2026-05-07 20:40 | 11.62701 | -68.27857 | 30334 ft | 448 kts | 309° |
| 2026-05-07 20:40 | 11.64640 | -68.30343 | 30790 ft | 447 kts | 310° |
| 2026-05-07 20:41 | 11.66581 | -68.32833 | 31266 ft | 445 kts | 310° |
| 2026-05-07 20:41 | 11.68486 | -68.35278 | 31732 ft | 444 kts | 310° |
| 2026-05-07 20:41 | 11.70432 | -68.37776 | 32226 ft | 442 kts | 310° |
| 2026-05-07 20:41 | 11.72344 | -68.40232 | 32718 ft | 440 kts | 310° |
| 2026-05-07 20:42 | 11.74223 | -68.42646 | 33211 ft | 438 kts | 310° |
| 2026-05-07 20:42 | 11.76114 | -68.45076 | 33724 ft | 436 kts | 310° |
| 2026-05-07 20:42 | 11.78001 | -68.47501 | 34199 ft | 433 kts | 310° |
| 2026-05-07 20:42 | 11.79868 | -68.49901 | 34659 ft | 430 kts | 310° |
| 2026-05-07 20:43 | 11.81729 | -68.52293 | 35104 ft | 427 kts | 311° |
| 2026-05-07 20:43 | 11.83568 | -68.54658 | 35589 ft | 423 kts | 311° |
| 2026-05-07 20:43 | 11.85373 | -68.56979 | 36059 ft | 419 kts | 311° |
| 2026-05-07 20:43 | 11.87178 | -68.59301 | 36540 ft | 415 kts | 311° |
| 2026-05-07 20:44 | 11.88965 | -68.61600 | 37036 ft | 411 kts | 311° |
| 2026-05-07 20:44 | 11.90729 | -68.63870 | 37550 ft | 405 kts | 311° |
| 2026-05-07 20:44 | 11.92481 | -68.66125 | 37898 ft | 405 kts | 311° |
| 2026-05-07 20:45 | 11.96047 | -68.70709 | 37939 ft | 418 kts | 311° |
| 2026-05-07 20:45 | 11.99743 | -68.75467 | 37950 ft | 432 kts | 311° |
| 2026-05-07 20:46 | 12.03515 | -68.80327 | 37955 ft | 445 kts | 311° |
| 2026-05-07 20:46 | 12.07409 | -68.85350 | 37954 ft | 452 kts | 311° |
| 2026-05-07 20:47 | 12.11324 | -68.90404 | 37958 ft | 453 kts | 311° |
| 2026-05-07 20:47 | 12.15159 | -68.95520 | 37958 ft | 454 kts | 308° |
| 2026-05-07 20:48 | 12.18539 | -69.01014 | 37958 ft | 457 kts | 302° |
| 2026-05-07 20:48 | 12.21360 | -69.06855 | 37952 ft | 459 kts | 297° |
| 2026-05-07 20:49 | 12.23619 | -69.13004 | 37959 ft | 462 kts | 292° |
| 2026-05-07 20:49 | 12.25691 | -69.19230 | 37955 ft | 462 kts | 292° |
| 2026-05-07 20:50 | 12.27750 | -69.25434 | 37950 ft | 462 kts | 292° |
| 2026-05-07 20:50 | 12.29819 | -69.31663 | 37953 ft | 462 kts | 292° |
| 2026-05-07 20:51 | 12.31893 | -69.37909 | 37950 ft | 462 kts | 292° |
| 2026-05-07 20:51 | 12.33962 | -69.44143 | 37944 ft | 462 kts | 292° |
| 2026-05-07 20:52 | 12.36033 | -69.50389 | 37946 ft | 462 kts | 292° |
| 2026-05-07 20:52 | 12.38098 | -69.56622 | 37947 ft | 462 kts | 292° |
| 2026-05-07 20:53 | 12.40153 | -69.62828 | 37944 ft | 462 kts | 292° |
| 2026-05-07 20:53 | 12.42216 | -69.69063 | 37941 ft | 462 kts | 292° |
| 2026-05-07 20:54 | 12.44278 | -69.75299 | 37937 ft | 462 kts | 292° |
| 2026-05-07 20:54 | 12.46340 | -69.81544 | 37934 ft | 462 kts | 292° |
| 2026-05-07 20:55 | 12.48529 | -69.87730 | 37928 ft | 460 kts | 296° |
| 2026-05-07 20:55 | 12.51296 | -69.93626 | 37925 ft | 458 kts | 302° |
| 2026-05-07 20:56 | 12.54636 | -69.99123 | 37928 ft | 455 kts | 308° |
| 2026-05-07 20:56 | 12.58514 | -70.04246 | 37931 ft | 454 kts | 312° |
| 2026-05-07 20:57 | 12.62536 | -70.09234 | 37929 ft | 454 kts | 312° |
| 2026-05-07 20:57 | 12.66563 | -70.14226 | 37933 ft | 454 kts | 312° |
| 2026-05-07 20:58 | 12.70589 | -70.19224 | 37934 ft | 454 kts | 312° |
| 2026-05-07 20:58 | 12.74609 | -70.24219 | 37933 ft | 454 kts | 312° |
| 2026-05-07 20:59 | 12.78626 | -70.29214 | 37938 ft | 454 kts | 312° |
| 2026-05-07 20:59 | 12.82642 | -70.34210 | 37940 ft | 453 kts | 312° |
| 2026-05-07 21:00 | 12.86631 | -70.39175 | 37933 ft | 453 kts | 312° |
| 2026-05-07 21:00 | 12.90644 | -70.44172 | 37932 ft | 453 kts | 312° |
| 2026-05-07 21:01 | 12.94661 | -70.49175 | 37937 ft | 453 kts | 312° |
| 2026-05-07 21:01 | 12.98676 | -70.54180 | 37934 ft | 453 kts | 312° |
| 2026-05-07 21:02 | 13.02656 | -70.59153 | 37926 ft | 453 kts | 312° |
| 2026-05-07 21:02 | 13.06659 | -70.64165 | 37931 ft | 453 kts | 312° |
| 2026-05-07 21:03 | 13.10662 | -70.69176 | 37933 ft | 453 kts | 312° |
| 2026-05-07 21:03 | 13.14674 | -70.74199 | 37933 ft | 453 kts | 312° |
| 2026-05-07 21:04 | 13.18650 | -70.79180 | 37936 ft | 453 kts | 312° |
| 2026-05-07 21:04 | 13.22657 | -70.84201 | 37936 ft | 453 kts | 312° |
| 2026-05-07 21:05 | 13.26660 | -70.89220 | 37936 ft | 453 kts | 312° |
| 2026-05-07 21:05 | 13.30660 | -70.94237 | 37937 ft | 454 kts | 312° |
| 2026-05-07 21:06 | 13.34659 | -70.99255 | 37934 ft | 454 kts | 312° |
| 2026-05-07 21:06 | 13.38658 | -71.04279 | 37937 ft | 454 kts | 312° |
| 2026-05-07 21:07 | 13.42615 | -71.09283 | 37931 ft | 454 kts | 311° |
| 2026-05-07 21:07 | 13.46597 | -71.14325 | 37931 ft | 454 kts | 311° |
| 2026-05-07 21:08 | 13.50583 | -71.19373 | 37940 ft | 454 kts | 311° |
| 2026-05-07 21:08 | 13.54570 | -71.24424 | 37932 ft | 454 kts | 311° |
| 2026-05-07 21:09 | 13.58549 | -71.29465 | 37937 ft | 454 kts | 311° |
| 2026-05-07 21:09 | 13.62507 | -71.34484 | 37943 ft | 454 kts | 311° |
| 2026-05-07 21:10 | 13.66493 | -71.39539 | 37938 ft | 454 kts | 311° |
| 2026-05-07 21:10 | 13.70476 | -71.44594 | 37928 ft | 454 kts | 311° |
| 2026-05-07 21:11 | 13.74458 | -71.49652 | 37931 ft | 454 kts | 311° |
| 2026-05-07 21:11 | 13.80438 | -71.57252 | 37951 ft | 454 kts | 311° |
| 2026-05-07 21:12 | 13.84403 | -71.62295 | 37947 ft | 454 kts | 311° |
| 2026-05-07 21:12 | 13.88378 | -71.67354 | 37937 ft | 455 kts | 311° |
| 2026-05-07 21:13 | 13.92365 | -71.72432 | 37934 ft | 455 kts | 311° |
| 2026-05-07 21:13 | 13.96352 | -71.77512 | 37951 ft | 455 kts | 311° |
| 2026-05-07 21:14 | 14.00337 | -71.82593 | 37951 ft | 455 kts | 311° |
| 2026-05-07 21:14 | 14.04296 | -71.87643 | 37944 ft | 455 kts | 311° |
| 2026-05-07 21:15 | 14.08280 | -71.92729 | 37952 ft | 456 kts | 311° |
| 2026-05-07 21:15 | 14.12268 | -71.97823 | 37943 ft | 456 kts | 311° |
| 2026-05-07 21:16 | 14.16248 | -72.02909 | 37957 ft | 456 kts | 311° |
| 2026-05-07 21:16 | 14.20235 | -72.08007 | 37947 ft | 456 kts | 311° |
| 2026-05-07 21:17 | 14.24222 | -72.13107 | 37948 ft | 456 kts | 311° |
| 2026-05-07 21:17 | 14.28210 | -72.18212 | 37957 ft | 457 kts | 311° |
| 2026-05-07 21:18 | 14.32200 | -72.23323 | 37955 ft | 457 kts | 311° |
| 2026-05-07 21:18 | 14.36143 | -72.28423 | 37958 ft | 457 kts | 311° |
| 2026-05-07 21:19 | 14.40094 | -72.33584 | 37954 ft | 457 kts | 311° |
| 2026-05-07 21:19 | 14.44042 | -72.38736 | 37955 ft | 458 kts | 311° |
| 2026-05-07 21:20 | 14.48002 | -72.43903 | 37957 ft | 458 kts | 311° |
| 2026-05-07 21:20 | 14.51957 | -72.49063 | 37947 ft | 458 kts | 310° |
| 2026-05-07 21:21 | 14.55919 | -72.54231 | 37955 ft | 458 kts | 311° |
| 2026-05-07 21:21 | 14.59913 | -72.59363 | 37953 ft | 458 kts | 311° |
| 2026-05-07 21:22 | 14.63888 | -72.64462 | 37961 ft | 458 kts | 311° |
| 2026-05-07 21:22 | 14.67917 | -72.69636 | 37961 ft | 458 kts | 311° |
| 2026-05-07 21:23 | 14.71887 | -72.74740 | 37952 ft | 459 kts | 311° |
| 2026-05-07 21:23 | 14.75892 | -72.79891 | 37958 ft | 459 kts | 311° |
| 2026-05-07 21:24 | 14.79894 | -72.85044 | 37956 ft | 459 kts | 311° |
| 2026-05-07 21:24 | 14.83894 | -72.90197 | 37952 ft | 459 kts | 311° |
| 2026-05-07 21:25 | 14.87226 | -72.94491 | 37960 ft | 459 kts | 311° |
| 2026-05-07 21:25 | 14.91226 | -72.99651 | 37957 ft | 459 kts | 311° |
| 2026-05-07 21:26 | 14.95226 | -73.04813 | 37960 ft | 460 kts | 311° |
| 2026-05-07 21:26 | 14.99229 | -73.09981 | 37959 ft | 460 kts | 311° |
| 2026-05-07 21:27 | 15.03232 | -73.15152 | 37965 ft | 460 kts | 311° |
| 2026-05-07 21:27 | 15.07236 | -73.20329 | 37960 ft | 460 kts | 310° |
| 2026-05-07 21:28 | 15.11232 | -73.25510 | 37968 ft | 460 kts | 310° |
| 2026-05-07 21:28 | 15.15227 | -73.30699 | 37962 ft | 460 kts | 310° |
| 2026-05-07 21:29 | 15.19194 | -73.35852 | 37960 ft | 460 kts | 310° |
| 2026-05-07 21:29 | 15.23189 | -73.41043 | 37966 ft | 460 kts | 310° |
| 2026-05-07 21:30 | 15.27187 | -73.46241 | 37964 ft | 460 kts | 310° |
| 2026-05-07 21:30 | 15.31177 | -73.51431 | 37964 ft | 460 kts | 310° |
| 2026-05-07 21:31 | 15.35171 | -73.56632 | 37963 ft | 460 kts | 310° |
| 2026-05-07 21:31 | 15.39162 | -73.61831 | 37963 ft | 460 kts | 310° |
| 2026-05-07 21:32 | 15.43150 | -73.67028 | 37964 ft | 460 kts | 310° |
| 2026-05-07 21:32 | 15.47143 | -73.72237 | 37970 ft | 460 kts | 310° |
| 2026-05-07 21:33 | 15.51130 | -73.77440 | 37967 ft | 460 kts | 310° |
| 2026-05-07 21:33 | 15.55120 | -73.82652 | 37970 ft | 461 kts | 310° |
| 2026-05-07 21:34 | 15.59107 | -73.87863 | 37967 ft | 461 kts | 310° |
| 2026-05-07 21:34 | 15.63095 | -73.93077 | 37970 ft | 461 kts | 310° |
| 2026-05-07 21:35 | 15.67080 | -73.98292 | 37967 ft | 461 kts | 310° |
| 2026-05-07 21:35 | 15.71159 | -74.03385 | 37972 ft | 460 kts | 312° |
| 2026-05-07 21:36 | 15.75325 | -74.08441 | 37969 ft | 460 kts | 312° |
| 2026-05-07 21:36 | 15.79492 | -74.13498 | 37972 ft | 460 kts | 312° |
| 2026-05-07 21:37 | 15.83660 | -74.18561 | 37973 ft | 460 kts | 312° |
| 2026-05-07 21:37 | 15.87829 | -74.23630 | 37972 ft | 460 kts | 312° |
| 2026-05-07 21:38 | 15.91968 | -74.28667 | 37974 ft | 460 kts | 312° |
| 2026-05-07 21:38 | 15.96133 | -74.33739 | 37973 ft | 460 kts | 312° |
| 2026-05-07 21:39 | 16.00293 | -74.38808 | 37981 ft | 460 kts | 312° |
| 2026-05-07 21:39 | 16.04453 | -74.43881 | 37980 ft | 460 kts | 312° |
| 2026-05-07 21:40 | 16.08608 | -74.48951 | 37980 ft | 460 kts | 312° |
| 2026-05-07 21:40 | 16.12742 | -74.53999 | 37983 ft | 460 kts | 312° |
| 2026-05-07 21:41 | 16.16896 | -74.59075 | 37983 ft | 460 kts | 311° |
| 2026-05-07 21:41 | 16.21049 | -74.64154 | 37980 ft | 460 kts | 311° |
| 2026-05-07 21:42 | 16.25200 | -74.69234 | 37983 ft | 460 kts | 311° |
| 2026-05-07 21:42 | 16.29346 | -74.74311 | 37985 ft | 460 kts | 311° |
| 2026-05-07 21:43 | 16.33475 | -74.79372 | 37986 ft | 460 kts | 311° |
| 2026-05-07 21:43 | 16.37620 | -74.84455 | 37983 ft | 460 kts | 311° |
| 2026-05-07 21:44 | 16.41772 | -74.89551 | 37981 ft | 460 kts | 311° |
| 2026-05-07 21:44 | 16.45914 | -74.94638 | 37984 ft | 460 kts | 311° |
| 2026-05-07 21:45 | 16.50063 | -74.99738 | 37985 ft | 460 kts | 311° |
| 2026-05-07 21:45 | 16.54204 | -75.04830 | 37983 ft | 460 kts | 311° |
| 2026-05-07 21:46 | 16.58346 | -75.09929 | 37983 ft | 460 kts | 311° |
| 2026-05-07 21:46 | 16.62484 | -75.15026 | 37982 ft | 460 kts | 311° |
| 2026-05-07 21:47 | 16.66618 | -75.20123 | 37987 ft | 460 kts | 311° |
| 2026-05-07 21:47 | 16.70733 | -75.25198 | 37988 ft | 460 kts | 311° |
| 2026-05-07 21:48 | 16.74868 | -75.30302 | 37989 ft | 460 kts | 311° |
| 2026-05-07 21:48 | 16.79006 | -75.35415 | 37989 ft | 460 kts | 311° |
| 2026-05-07 21:49 | 16.83146 | -75.40533 | 37987 ft | 460 kts | 311° |
| 2026-05-07 21:49 | 16.87278 | -75.45646 | 37992 ft | 460 kts | 311° |
| 2026-05-07 21:50 | 16.91386 | -75.50732 | 37993 ft | 460 kts | 311° |
| 2026-05-07 21:50 | 16.95520 | -75.55855 | 37990 ft | 461 kts | 311° |
| 2026-05-07 21:51 | 16.99660 | -75.60988 | 37991 ft | 461 kts | 311° |
| 2026-05-07 21:51 | 17.03790 | -75.66114 | 37993 ft | 461 kts | 311° |
| 2026-05-07 21:52 | 17.07934 | -75.71259 | 37995 ft | 461 kts | 311° |
| 2026-05-07 21:52 | 17.12069 | -75.76398 | 37996 ft | 461 kts | 311° |
| 2026-05-07 21:53 | 17.16182 | -75.81514 | 37995 ft | 461 kts | 311° |
| 2026-05-07 21:53 | 17.20310 | -75.86651 | 37995 ft | 461 kts | 311° |
| 2026-05-07 21:54 | 17.24438 | -75.91793 | 37995 ft | 461 kts | 311° |
| 2026-05-07 21:54 | 17.28572 | -75.96946 | 37995 ft | 461 kts | 311° |
| 2026-05-07 21:55 | 17.32699 | -76.02094 | 37997 ft | 461 kts | 311° |
| 2026-05-07 21:55 | 17.36831 | -76.07253 | 37993 ft | 461 kts | 311° |
| 2026-05-07 21:56 | 17.40921 | -76.12362 | 37995 ft | 461 kts | 311° |
| 2026-05-07 21:56 | 17.45070 | -76.17549 | 37994 ft | 461 kts | 311° |
| 2026-05-07 21:57 | 17.49159 | -76.22666 | 37988 ft | 460 kts | 311° |
| 2026-05-07 21:57 | 17.53277 | -76.27823 | 37988 ft | 460 kts | 311° |
| 2026-05-07 21:58 | 17.57388 | -76.32975 | 37988 ft | 460 kts | 311° |
| 2026-05-07 21:58 | 17.61496 | -76.38127 | 37986 ft | 460 kts | 311° |
| 2026-05-07 21:59 | 17.65580 | -76.43253 | 37988 ft | 460 kts | 311° |
| 2026-05-07 21:59 | 17.69682 | -76.48405 | 37983 ft | 460 kts | 311° |
| 2026-05-07 22:00 | 17.73786 | -76.53564 | 37986 ft | 459 kts | 311° |
| 2026-05-07 22:00 | 17.77883 | -76.58718 | 37983 ft | 459 kts | 311° |
| 2026-05-07 22:01 | 17.81984 | -76.63880 | 37984 ft | 459 kts | 311° |
| 2026-05-07 22:01 | 17.86082 | -76.69042 | 37983 ft | 459 kts | 311° |
| 2026-05-07 22:02 | 17.90118 | -76.74184 | 37983 ft | 460 kts | 309° |
| 2026-05-07 22:02 | 17.93812 | -76.79739 | 37983 ft | 461 kts | 303° |
| 2026-05-07 22:03 | 17.96927 | -76.85571 | 37979 ft | 461 kts | 299° |
| 2026-05-07 22:03 | 17.99922 | -76.91548 | 37978 ft | 461 kts | 299° |
| 2026-05-07 22:04 | 18.02910 | -76.97523 | 37984 ft | 461 kts | 299° |
| 2026-05-07 22:04 | 18.05899 | -77.03495 | 37990 ft | 461 kts | 299° |
| 2026-05-07 22:05 | 18.08886 | -77.09464 | 37990 ft | 460 kts | 299° |
| 2026-05-07 22:05 | 18.11865 | -77.15426 | 37996 ft | 460 kts | 299° |
| 2026-05-07 22:06 | 18.14844 | -77.21389 | 37997 ft | 460 kts | 299° |
| 2026-05-07 22:06 | 18.17822 | -77.27355 | 37997 ft | 460 kts | 299° |
| 2026-05-07 22:07 | 18.20793 | -77.33316 | 38000 ft | 459 kts | 299° |
| 2026-05-07 22:07 | 18.23743 | -77.39244 | 37999 ft | 459 kts | 299° |
| 2026-05-07 22:08 | 18.26707 | -77.45210 | 37999 ft | 459 kts | 299° |
| 2026-05-07 22:08 | 18.29667 | -77.51170 | 37998 ft | 459 kts | 299° |
| 2026-05-07 22:09 | 18.32627 | -77.57134 | 37998 ft | 459 kts | 298° |
| 2026-05-07 22:09 | 18.35587 | -77.63101 | 37996 ft | 459 kts | 298° |
| 2026-05-07 22:10 | 18.38549 | -77.69080 | 37989 ft | 459 kts | 298° |
| 2026-05-07 22:10 | 18.41488 | -77.75017 | 37986 ft | 459 kts | 298° |
| 2026-05-07 22:11 | 18.43966 | -77.80026 | 37982 ft | 460 kts | 298° |
| 2026-05-07 22:11 | 18.46920 | -77.85963 | 37977 ft | 459 kts | 300° |
| 2026-05-07 22:12 | 18.50288 | -77.91693 | 37980 ft | 459 kts | 306° |
| 2026-05-07 22:12 | 18.54205 | -77.97026 | 37985 ft | 459 kts | 311° |
| 2026-05-07 22:13 | 18.58523 | -78.01992 | 37982 ft | 459 kts | 314° |
| 2026-05-07 22:13 | 18.62883 | -78.06906 | 37988 ft | 459 kts | 314° |
| 2026-05-07 22:14 | 18.67247 | -78.11834 | 37987 ft | 459 kts | 314° |
| 2026-05-07 22:14 | 18.71572 | -78.16724 | 37990 ft | 458 kts | 314° |
| 2026-05-07 22:15 | 18.75925 | -78.21653 | 37995 ft | 458 kts | 313° |
| 2026-05-07 22:15 | 18.80275 | -78.26582 | 37998 ft | 458 kts | 313° |
| 2026-05-07 22:16 | 18.84618 | -78.31508 | 37998 ft | 458 kts | 313° |
| 2026-05-07 22:16 | 18.88964 | -78.36441 | 37995 ft | 458 kts | 313° |
| 2026-05-07 22:17 | 18.93306 | -78.41373 | 38000 ft | 458 kts | 313° |
| 2026-05-07 22:17 | 18.97659 | -78.46322 | 37998 ft | 459 kts | 313° |
| 2026-05-07 22:18 | 19.04176 | -78.53739 | 38000 ft | 459 kts | 313° |
| 2026-05-07 22:19 | 19.08526 | -78.58695 | 38003 ft | 459 kts | 313° |
| 2026-05-07 22:19 | 19.12844 | -78.63620 | 38000 ft | 459 kts | 313° |
| 2026-05-07 22:20 | 19.17188 | -78.68576 | 38001 ft | 459 kts | 313° |
| 2026-05-07 22:20 | 19.21536 | -78.73539 | 38005 ft | 460 kts | 313° |
| 2026-05-07 22:21 | 19.25890 | -78.78517 | 38005 ft | 460 kts | 313° |
| 2026-05-07 22:21 | 19.30245 | -78.83500 | 38003 ft | 461 kts | 313° |
| 2026-05-07 22:22 | 19.34600 | -78.88485 | 38005 ft | 461 kts | 313° |
| 2026-05-07 22:22 | 19.38958 | -78.93477 | 38003 ft | 460 kts | 313° |
| 2026-05-07 22:23 | 19.43308 | -78.98467 | 38001 ft | 460 kts | 313° |
| 2026-05-07 22:23 | 19.47659 | -79.03465 | 38005 ft | 460 kts | 313° |
| 2026-05-07 22:24 | 19.51980 | -79.08430 | 38009 ft | 460 kts | 313° |
| 2026-05-07 22:24 | 19.56326 | -79.13428 | 38003 ft | 460 kts | 313° |
| 2026-05-07 22:25 | 19.60669 | -79.18425 | 38005 ft | 460 kts | 313° |
| 2026-05-07 22:25 | 19.65010 | -79.23424 | 38004 ft | 460 kts | 313° |
| 2026-05-07 22:26 | 19.69344 | -79.28420 | 38010 ft | 460 kts | 313° |
| 2026-05-07 22:26 | 19.73681 | -79.33422 | 38009 ft | 460 kts | 313° |
| 2026-05-07 22:27 | 19.78013 | -79.38424 | 38008 ft | 460 kts | 313° |
| 2026-05-07 22:27 | 19.82343 | -79.43428 | 38009 ft | 459 kts | 314° |
| 2026-05-07 22:28 | 19.86671 | -79.48431 | 38012 ft | 459 kts | 314° |
| 2026-05-07 22:28 | 19.90992 | -79.53433 | 38013 ft | 459 kts | 314° |
| 2026-05-07 22:29 | 19.95311 | -79.58435 | 38010 ft | 459 kts | 314° |
| 2026-05-07 22:29 | 19.99625 | -79.63436 | 38008 ft | 458 kts | 314° |
| 2026-05-07 22:30 | 20.03937 | -79.68435 | 38004 ft | 458 kts | 314° |
| 2026-05-07 22:30 | 20.08227 | -79.73407 | 38007 ft | 458 kts | 314° |
| 2026-05-07 22:31 | 20.12541 | -79.78409 | 38009 ft | 458 kts | 314° |
| 2026-05-07 22:31 | 20.16854 | -79.83414 | 38009 ft | 458 kts | 314° |
| 2026-05-07 22:32 | 20.21166 | -79.88422 | 38011 ft | 458 kts | 314° |
| 2026-05-07 22:32 | 20.25474 | -79.93430 | 38012 ft | 457 kts | 314° |
| 2026-05-07 22:33 | 20.29748 | -79.98404 | 38011 ft | 457 kts | 314° |
| 2026-05-07 22:33 | 20.34051 | -80.03413 | 38010 ft | 457 kts | 314° |
| 2026-05-07 22:34 | 20.38349 | -80.08423 | 38008 ft | 457 kts | 314° |
| 2026-05-07 22:34 | 20.42640 | -80.13427 | 38012 ft | 456 kts | 314° |
| 2026-05-07 22:35 | 20.46932 | -80.18438 | 38009 ft | 456 kts | 314° |
| 2026-05-07 22:35 | 20.51215 | -80.23444 | 38008 ft | 456 kts | 313° |
| 2026-05-07 22:36 | 20.55462 | -80.28448 | 38008 ft | 456 kts | 313° |
| 2026-05-07 22:36 | 20.59718 | -80.33486 | 38014 ft | 456 kts | 313° |
| 2026-05-07 22:37 | 20.63963 | -80.38512 | 38012 ft | 456 kts | 313° |
| 2026-05-07 22:37 | 20.68215 | -80.43547 | 38008 ft | 455 kts | 313° |
| 2026-05-07 22:38 | 20.72462 | -80.48579 | 38013 ft | 455 kts | 313° |
| 2026-05-07 22:38 | 20.76702 | -80.53609 | 38010 ft | 455 kts | 313° |
| 2026-05-07 22:39 | 20.80916 | -80.58611 | 38009 ft | 455 kts | 313° |
| 2026-05-07 22:39 | 20.85150 | -80.63642 | 38009 ft | 455 kts | 313° |
| 2026-05-07 22:40 | 20.89386 | -80.68679 | 38011 ft | 455 kts | 313° |
| 2026-05-07 22:40 | 20.93623 | -80.73722 | 38010 ft | 455 kts | 313° |
| 2026-05-07 22:41 | 20.97851 | -80.78759 | 38009 ft | 455 kts | 313° |
| 2026-05-07 22:41 | 21.02087 | -80.83809 | 38010 ft | 455 kts | 313° |
| 2026-05-07 22:42 | 21.06316 | -80.88856 | 38013 ft | 455 kts | 313° |
| 2026-05-07 22:42 | 21.10555 | -80.93890 | 38012 ft | 455 kts | 313° |
| 2026-05-07 22:43 | 21.14779 | -80.98888 | 38015 ft | 455 kts | 313° |
| 2026-05-07 22:43 | 21.19028 | -81.03921 | 37996 ft | 453 kts | 313° |
| 2026-05-07 22:43 | 21.21139 | -81.06423 | 37596 ft | 452 kts | 313° |
| 2026-05-07 22:44 | 21.23268 | -81.08948 | 36540 ft | 460 kts | 312° |
| 2026-05-07 22:44 | 21.25434 | -81.11517 | 35289 ft | 465 kts | 312° |
| 2026-05-07 22:44 | 21.27582 | -81.14068 | 34759 ft | 454 kts | 312° |
| 2026-05-07 22:44 | 21.29694 | -81.16577 | 34309 ft | 453 kts | 312° |
| 2026-05-07 22:45 | 21.31810 | -81.19092 | 33802 ft | 454 kts | 312° |
| 2026-05-07 22:45 | 21.33925 | -81.21607 | 33070 ft | 452 kts | 312° |
| 2026-05-07 22:45 | 21.36021 | -81.24101 | 32491 ft | 448 kts | 312° |
| 2026-05-07 22:45 | 21.38115 | -81.26595 | 31810 ft | 451 kts | 312° |
| 2026-05-07 22:46 | 21.40227 | -81.29109 | 31112 ft | 454 kts | 312° |
| 2026-05-07 22:46 | 21.42332 | -81.31616 | 30391 ft | 458 kts | 312° |
| 2026-05-07 22:46 | 21.44476 | -81.34172 | 29569 ft | 462 kts | 312° |
| 2026-05-07 22:46 | 21.46637 | -81.36748 | 28771 ft | 465 kts | 312° |
| 2026-05-07 22:47 | 21.48814 | -81.39344 | 27980 ft | 467 kts | 312° |
| 2026-05-07 22:47 | 21.50994 | -81.41945 | 27331 ft | 466 kts | 312° |
| 2026-05-07 22:47 | 21.53160 | -81.44532 | 26852 ft | 462 kts | 312° |
| 2026-05-07 22:47 | 21.55304 | -81.47093 | 26289 ft | 459 kts | 312° |
| 2026-05-07 22:48 | 21.57441 | -81.49640 | 25772 ft | 456 kts | 313° |
| 2026-05-07 22:48 | 21.59696 | -81.52022 | 25286 ft | 452 kts | 318° |
| 2026-05-07 22:48 | 21.62120 | -81.54153 | 24812 ft | 449 kts | 323° |
| 2026-05-07 22:48 | 21.64696 | -81.56027 | 24348 ft | 445 kts | 328° |
| 2026-05-07 22:49 | 21.67306 | -81.57738 | 23904 ft | 442 kts | 329° |
| 2026-05-07 22:49 | 21.69945 | -81.59433 | 23422 ft | 439 kts | 329° |
| 2026-05-07 22:49 | 21.72563 | -81.61112 | 22900 ft | 436 kts | 329° |
| 2026-05-07 22:49 | 21.75162 | -81.62781 | 22412 ft | 433 kts | 329° |
| 2026-05-07 22:50 | 21.77736 | -81.64438 | 21923 ft | 429 kts | 329° |
| 2026-05-07 22:50 | 21.80292 | -81.66087 | 21437 ft | 426 kts | 330° |
| 2026-05-07 22:50 | 21.82825 | -81.67722 | 20974 ft | 423 kts | 330° |
| 2026-05-07 22:50 | 21.85348 | -81.69352 | 20490 ft | 421 kts | 330° |
| 2026-05-07 22:51 | 21.87852 | -81.70971 | 20019 ft | 419 kts | 330° |
| 2026-05-07 22:51 | 21.90343 | -81.72583 | 19557 ft | 416 kts | 330° |
| 2026-05-07 22:51 | 21.92818 | -81.74185 | 19096 ft | 414 kts | 330° |
| 2026-05-07 22:51 | 21.95284 | -81.75783 | 18641 ft | 412 kts | 330° |
| 2026-05-07 22:52 | 21.97742 | -81.77377 | 18172 ft | 410 kts | 330° |
| 2026-05-07 22:52 | 22.00155 | -81.78939 | 17669 ft | 408 kts | 330° |
| 2026-05-07 22:52 | 22.02581 | -81.80510 | 17203 ft | 405 kts | 330° |
| 2026-05-07 22:52 | 22.04990 | -81.82072 | 16758 ft | 402 kts | 330° |
| 2026-05-07 22:53 | 22.07380 | -81.83623 | 16313 ft | 399 kts | 330° |
| 2026-05-07 22:53 | 22.09758 | -81.85167 | 15865 ft | 397 kts | 330° |
| 2026-05-07 22:53 | 22.12119 | -81.86701 | 15428 ft | 395 kts | 330° |
| 2026-05-07 22:53 | 22.14472 | -81.88230 | 14982 ft | 393 kts | 330° |
| 2026-05-07 22:54 | 22.16807 | -81.89748 | 14534 ft | 391 kts | 330° |
| 2026-05-07 22:54 | 22.19139 | -81.91264 | 14096 ft | 390 kts | 330° |
| 2026-05-07 22:54 | 22.21462 | -81.92776 | 13628 ft | 388 kts | 330° |
| 2026-05-07 22:54 | 22.23775 | -81.94281 | 13152 ft | 386 kts | 330° |
| 2026-05-07 22:55 | 22.26034 | -81.95753 | 12713 ft | 383 kts | 330° |
| 2026-05-07 22:55 | 22.28337 | -81.97254 | 12273 ft | 380 kts | 330° |
| 2026-05-07 22:55 | 22.30561 | -81.98705 | 11854 ft | 376 kts | 330° |
| 2026-05-07 22:55 | 22.32794 | -82.00161 | 11432 ft | 373 kts | 330° |
| 2026-05-07 22:56 | 22.35001 | -82.01601 | 11026 ft | 368 kts | 330° |
| 2026-05-07 22:56 | 22.37172 | -82.03018 | 10748 ft | 359 kts | 330° |
| 2026-05-07 22:56 | 22.39273 | -82.04390 | 10648 ft | 346 kts | 330° |
| 2026-05-07 22:56 | 22.40621 | -82.05271 | 10558 ft | 337 kts | 330° |
| 2026-05-07 22:57 | 22.43235 | -82.06979 | 10410 ft | 319 kts | 330° |
| 2026-05-07 22:57 | 22.44477 | -82.07790 | 10346 ft | 311 kts | 330° |
| 2026-05-07 22:57 | 22.46294 | -82.08978 | 10240 ft | 299 kts | 330° |
| 2026-05-07 22:57 | 22.48045 | -82.10121 | 10154 ft | 289 kts | 330° |
| 2026-05-07 22:58 | 22.49743 | -82.11231 | 10072 ft | 283 kts | 330° |
| 2026-05-07 22:58 | 22.51425 | -82.12330 | 9898 ft | 282 kts | 330° |
| 2026-05-07 22:58 | 22.53111 | -82.13431 | 9548 ft | 283 kts | 330° |
| 2026-05-07 22:58 | 22.54793 | -82.14531 | 9226 ft | 282 kts | 330° |
| 2026-05-07 22:59 | 22.56470 | -82.15629 | 8920 ft | 281 kts | 330° |
| 2026-05-07 22:59 | 22.58139 | -82.16723 | 8624 ft | 280 kts | 330° |
| 2026-05-07 22:59 | 22.59804 | -82.17813 | 8319 ft | 279 kts | 330° |
| 2026-05-07 22:59 | 22.61476 | -82.18908 | 8021 ft | 278 kts | 330° |
| 2026-05-07 23:00 | 22.63132 | -82.19993 | 7714 ft | 277 kts | 330° |
| 2026-05-07 23:00 | 22.64782 | -82.21074 | 7422 ft | 277 kts | 330° |
| 2026-05-07 23:00 | 22.66393 | -82.22210 | 7110 ft | 277 kts | 321° |
| 2026-05-07 23:00 | 22.67663 | -82.23784 | 6809 ft | 279 kts | 302° |
| 2026-05-07 23:01 | 22.68532 | -82.25633 | 6529 ft | 278 kts | 295° |
| 2026-05-07 23:01 | 22.69330 | -82.27545 | 6221 ft | 278 kts | 295° |
| 2026-05-07 23:01 | 22.70120 | -82.29461 | 5920 ft | 278 kts | 295° |
| 2026-05-07 23:01 | 22.70916 | -82.31369 | 5624 ft | 277 kts | 295° |
| 2026-05-07 23:02 | 22.71715 | -82.33265 | 5337 ft | 276 kts | 295° |
| 2026-05-07 23:02 | 22.72517 | -82.35153 | 5050 ft | 274 kts | 295° |
| 2026-05-07 23:02 | 22.73314 | -82.37024 | 4770 ft | 271 kts | 295° |
| 2026-05-07 23:02 | 22.74103 | -82.38875 | 4472 ft | 269 kts | 295° |
| 2026-05-07 23:03 | 22.74884 | -82.40706 | 4193 ft | 266 kts | 295° |
| 2026-05-07 23:03 | 22.75661 | -82.42527 | 3925 ft | 265 kts | 295° |
| 2026-05-07 23:03 | 22.76444 | -82.44365 | 3647 ft | 264 kts | 295° |
| 2026-05-07 23:03 | 22.77212 | -82.46167 | 3360 ft | 262 kts | 295° |
| 2026-05-07 23:04 | 22.77964 | -82.47932 | 3093 ft | 260 kts | 295° |
| 2026-05-07 23:04 | 22.78711 | -82.49685 | 3016 ft | 249 kts | 294° |
| 2026-05-07 23:04 | 22.79505 | -82.51294 | 2998 ft | 234 kts | 307° |
| 2026-05-07 23:04 | 22.80658 | -82.52520 | 2999 ft | 232 kts | 323° |
| 2026-05-07 23:05 | 22.81969 | -82.53547 | 2956 ft | 232 kts | 325° |
| 2026-05-07 23:05 | 22.83281 | -82.54529 | 2894 ft | 224 kts | 325° |
| 2026-05-07 23:05 | 22.84551 | -82.55487 | 2704 ft | 222 kts | 325° |
| 2026-05-07 23:05 | 22.85801 | -82.56440 | 2405 ft | 222 kts | 324° |
| 2026-05-07 23:06 | 22.87154 | -82.57220 | 2101 ft | 221 kts | 351° |
| 2026-05-07 23:06 | 22.88617 | -82.57067 | 2023 ft | 206 kts | 26° |
| 2026-05-07 23:06 | 22.89593 | -82.56084 | 1994 ft | 186 kts | 63° |
| 2026-05-07 23:06 | 22.90130 | -82.54817 | 2007 ft | 183 kts | 67° |
| 2026-05-07 23:07 | 22.90699 | -82.53577 | 2009 ft | 183 kts | 62° |
| 2026-05-07 23:07 | 22.91361 | -82.52397 | 2022 ft | 183 kts | 58° |
| 2026-05-07 23:07 | 22.92079 | -82.51259 | 2000 ft | 182 kts | 56° |
| 2026-05-07 23:07 | 22.92821 | -82.50136 | 1884 ft | 183 kts | 55° |
| 2026-05-07 23:08 | 22.93563 | -82.49020 | 1663 ft | 181 kts | 56° |
| 2026-05-07 23:08 | 22.94281 | -82.47933 | 1396 ft | 172 kts | 56° |
| 2026-05-07 23:08 | 22.94949 | -82.46920 | 1154 ft | 159 kts | 56° |
| 2026-05-07 23:08 | 22.95574 | -82.45967 | 997 ft | 156 kts | 55° |
| 2026-05-07 23:09 | 22.96204 | -82.45011 | 810 ft | 155 kts | 55° |
| 2026-05-07 23:09 | 22.96838 | -82.44063 | 587 ft | 155 kts | 54° |
| 2026-05-07 23:09 | 22.97463 | -82.43109 | 407 ft | 154 kts | 55° |
| 2026-05-07 23:09 | 22.98078 | -82.42164 | 245 ft | 151 kts | 55° |
| 2026-05-07 23:10 | 22.98620 | -82.41342 | 231 ft | 107 kts | 54° |
| 2026-05-07 23:10 | 22.98949 | -82.40850 | 228 ft | 56 kts | 54° |
| 2026-05-07 23:10 | 22.99107 | -82.40613 | 231 ft | 27 kts | 54° |
| 2026-05-07 23:10 | 22.99218 | -82.40453 | 227 ft | 25 kts | 40° |
| 2026-05-07 23:11 | 22.99351 | -82.40407 | 230 ft | 17 kts | 11° |
| 2026-05-07 23:11 | 22.99417 | -82.40395 | 225 ft | 10 kts | 7° |
| 2026-05-07 23:11 | 22.99493 | -82.40413 | 230 ft | 7 kts | 328° |
| 2026-05-07 23:11 | 22.99511 | -82.40425 | 230 ft | 7 kts | 327° |
| 2026-05-07 23:12 | 22.99553 | -82.40460 | 230 ft | 4 kts | 321° |
| 2026-05-07 23:12 | 22.99580 | -82.40490 | 229 ft | 7 kts | 292° |
| 2026-05-07 23:12 | 22.99589 | -82.40548 | 230 ft | 4 kts | 286° |
| 2026-05-07 23:12 | 22.99605 | -82.40587 | 227 ft | 8 kts | 298° |
| 2026-05-07 23:13 | 22.99617 | -82.40609 | 231 ft | 4 kts | 301° |
| 2026-05-07 23:13 | 22.99622 | -82.40619 | 229 ft | 0 kts | 301° |